Archival Weather

Chicago O'Hare International

Chicago, Illinois (KORD)

Report from: Tuesday, November 29, 2022 2:51 PM CST
Current time: Sunday, January 29, 2023 10:28 AM CST

Current weather
Weather history
Weather forecast

Temperature14.4°C (57.9°F)
Dew point8.3°C (46.9°F)
Winds 19 kts (9.8 m/s, 21.9 mph) South (190°)
Wind gusts 34 kts (17.5 m/s, 39.1 mph)
Peak wind 34 kts (17.5 m/s, 39.1 mph) South (190°) at 14:27
Visibility10 mi. (16.1 km)
Clouds Ceiling: Broken clouds 2,600 ft. (792 m)
Overcast 3,700 ft. (1,128 m)
Altimeter29.50 in.Hg (999 mB)
Relative humidity67 %
Density altitude571 ft. (174 m)
Sea-level pressure99.9 kPa (999 mB, 29.50 in.Hg)
Remarks Automated weather observing station with precipitation discriminator
Pressure falling, then rising
Flight conditions Marginal Visual Meteorological Conditions
Raw dataKORD 292051Z 19019G34KT 10SM BKN026 OVC037 14/08 A2950 RMK AO2 PK WND 19034/2027 SLP990 T01440083 55009
An error has occurred. This application may no longer respond until reloaded. Reload 🗙